TimePDT,TemperatureF,Dew PointF,Humidity,Sea Level PressureIn,VisibilityMPH,Wind Direction,Wind SpeedMPH,Gust SpeedMPH,PrecipitationIn,Events,Conditions,WindDirDegrees,DateUTC
1:23 AM,55.4,53.6,94,29.99,8.0,Calm,Calm,-,N/A,,Overcast,0,2012-10-12 08:23:00
1:53 AM,55.0,54.0,96,29.99,6.0,Calm,Calm,-,N/A,,Overcast,0,2012-10-12 08:53:00
2:53 AM,55.0,53.1,93,30.00,6.0,Calm,Calm,-,N/A,,Scattered Clouds,0,2012-10-12 09:53:00
3:06 AM,55.4,53.6,94,29.99,6.0,Calm,Calm,-,0.00,Rain,Light Rain,0,2012-10-12 10:06:00
3:38 AM,55.4,53.6,94,29.99,7.0,Calm,Calm,-,0.00,,Overcast,0,2012-10-12 10:38:00
3:45 AM,55.4,53.6,94,29.99,6.0,Calm,Calm,-,0.00,,Mostly Cloudy,0,2012-10-12 10:45:00
3:53 AM,55.0,53.1,93,29.99,6.0,Calm,Calm,-,0.00,,Scattered Clouds,0,2012-10-12 10:53:00
4:53 AM,54.0,52.0,93,30.00,6.0,WNW,3.5,-,N/A,,Mostly Cloudy,300,2012-10-12 11:53:00
5:13 AM,53.6,51.8,94,30.01,7.0,Calm,Calm,-,N/A,,Overcast,0,2012-10-12 12:13:00
5:53 AM,54.0,52.0,93,30.03,10.0,Calm,Calm,-,N/A,,Overcast,0,2012-10-12 12:53:00
6:36 AM,53.6,51.8,94,30.04,10.0,Calm,Calm,-,N/A,,Overcast,0,2012-10-12 13:36:00
6:53 AM,54.0,52.0,93,30.05,10.0,Calm,Calm,-,N/A,,Overcast,0,2012-10-12 13:53:00
7:53 AM,55.0,52.0,89,30.06,10.0,Calm,Calm,-,N/A,,Overcast,0,2012-10-12 14:53:00
9:53 AM,57.0,53.1,87,30.12,9.0,Calm,Calm,-,N/A,,Overcast,0,2012-10-12 16:53:00
10:41 AM,57.2,53.6,88,30.13,9.0,North,3.5,-,0.00,,Overcast,10,2012-10-12 17:41:00
10:53 AM,57.9,53.1,84,30.13,9.0,Calm,Calm,-,0.00,,Overcast,0,2012-10-12 17:53:00
11:53 AM,57.0,55.0,93,30.14,2.0,South,3.5,-,0.00,Rain,Light Rain,190,2012-10-12 18:53:00
12:05 PM,57.2,55.4,94,30.15,3.0,Variable,3.5,-,0.00,,Overcast,0,2012-10-12 19:05:00
12:53 PM,60.1,53.1,78,30.15,10.0,South,4.6,-,0.00,,Overcast,170,2012-10-12 19:53:00
1:05 PM,62.6,55.4,77,30.15,10.0,South,10.4,-,N/A,,Overcast,170,2012-10-12 20:05:00
1:46 PM,64.4,51.8,64,30.15,10.0,South,8.1,-,N/A,,Overcast,190,2012-10-12 20:46:00
1:53 PM,63.0,51.1,65,30.15,10.0,South,8.1,-,N/A,,Overcast,190,2012-10-12 20:53:00
2:16 PM,62.6,51.8,68,30.15,10.0,South,8.1,-,N/A,,Overcast,190,2012-10-12 21:16:00
3:53 PM,62.1,52.0,70,30.16,10.0,WSW,3.5,-,N/A,,Overcast,240,2012-10-12 22:53:00
4:53 PM,60.1,53.1,78,30.17,10.0,SW,8.1,-,N/A,,Overcast,220,2012-10-12 23:53:00
5:53 PM,59.0,54.0,83,30.18,10.0,WSW,4.6,-,N/A,,Overcast,240,2012-10-13 00:53:00
7:53 PM,59.0,54.0,83,30.19,10.0,Calm,Calm,-,N/A,,Overcast,0,2012-10-13 02:53:00
8:53 PM,57.9,54.0,87,30.20,10.0,Calm,Calm,-,N/A,,Overcast,0,2012-10-13 03:53:00
9:53 PM,57.0,54.0,89,30.21,10.0,SSE,3.5,-,N/A,,Overcast,150,2012-10-13 04:53:00
10:53 PM,57.0,54.0,89,30.23,10.0,Calm,Calm,-,N/A,,Overcast,0,2012-10-13 05:53:00
11:53 PM,57.0,55.0,93,30.22,10.0,SE,4.6,-,N/A,,Overcast,130,2012-10-13 06:53:00